sensor_id;sensor_type;location;lat;lon;timestamp;temperature;humidity
3792;DHT22;1911;53.768;11.474;2023-11-19T00:00:09;4.30;99.90
3792;DHT22;1911;53.768;11.474;2023-11-19T00:02:38;4.30;99.90
3792;DHT22;1911;53.768;11.474;2023-11-19T00:05:04;4.30;99.90
3792;DHT22;1911;53.768;11.474;2023-11-19T00:07:31;4.30;99.90
3792;DHT22;1911;53.768;11.474;2023-11-19T00:09:56;4.40;99.90
3792;DHT22;1911;53.768;11.474;2023-11-19T00:12:22;4.40;99.90
3792;DHT22;1911;53.768;11.474;2023-11-19T00:14:48;4.40;99.90
3792;DHT22;1911;53.768;11.474;2023-11-19T00:17:13;4.40;99.90
3792;DHT22;1911;53.768;11.474;2023-11-19T00:19:39;4.40;99.90
3792;DHT22;1911;53.768;11.474;2023-11-19T00:22:04;4.40;99.90
3792;DHT22;1911;53.768;11.474;2023-11-19T00:24:30;4.30;99.90
3792;DHT22;1911;53.768;11.474;2023-11-19T00:26:56;4.30;99.90
3792;DHT22;1911;53.768;11.474;2023-11-19T00:29:22;4.30;99.90
3792;DHT22;1911;53.768;11.474;2023-11-19T00:31:47;4.30;99.90
3792;DHT22;1911;53.768;11.474;2023-11-19T00:34:13;4.30;99.90
3792;DHT22;1911;53.768;11.474;2023-11-19T00:36:39;4.40;99.90
3792;DHT22;1911;53.768;11.474;2023-11-19T00:39:04;4.40;99.90
3792;DHT22;1911;53.768;11.474;2023-11-19T00:41:31;4.40;99.90
3792;DHT22;1911;53.768;11.474;2023-11-19T00:43:56;4.40;99.90
3792;DHT22;1911;53.768;11.474;2023-11-19T00:46:22;4.40;99.90
3792;DHT22;1911;53.768;11.474;2023-11-19T00:48:47;4.40;99.90
3792;DHT22;1911;53.768;11.474;2023-11-19T00:51:13;4.40;99.90
3792;DHT22;1911;53.768;11.474;2023-11-19T00:53:39;4.40;99.90
3792;DHT22;1911;53.768;11.474;2023-11-19T00:56:05;4.50;99.90
3792;DHT22;1911;53.768;11.474;2023-11-19T00:58:31;4.50;99.90
3792;DHT22;1911;53.768;11.474;2023-11-19T01:00:57;4.40;99.90
3792;DHT22;1911;53.768;11.474;2023-11-19T01:03:23;4.40;99.90
3792;DHT22;1911;53.768;11.474;2023-11-19T01:05:48;4.40;99.90
3792;DHT22;1911;53.768;11.474;2023-11-19T01:08:14;4.50;99.90
3792;DHT22;1911;53.768;11.474;2023-11-19T01:10:41;4.40;99.90
3792;DHT22;1911;53.768;11.474;2023-11-19T01:13:06;4.50;99.90
3792;DHT22;1911;53.768;11.474;2023-11-19T01:15:32;4.50;99.90
3792;DHT22;1911;53.768;11.474;2023-11-19T01:17:58;4.50;99.90
3792;DHT22;1911;53.768;11.474;2023-11-19T01:20:24;4.50;99.90
3792;DHT22;1911;53.768;11.474;2023-11-19T01:22:50;4.50;99.90
3792;DHT22;1911;53.768;11.474;2023-11-19T01:25:16;4.50;99.90
3792;DHT22;1911;53.768;11.474;2023-11-19T01:27:41;4.50;99.90
3792;DHT22;1911;53.768;11.474;2023-11-19T01:30:07;4.50;99.90
3792;DHT22;1911;53.768;11.474;2023-11-19T01:32:35;4.60;99.90
3792;DHT22;1911;53.768;11.474;2023-11-19T01:35:02;4.50;99.90
3792;DHT22;1911;53.768;11.474;2023-11-19T01:37:29;4.50;99.90
3792;DHT22;1911;53.768;11.474;2023-11-19T01:39:55;4.60;99.90
3792;DHT22;1911;53.768;11.474;2023-11-19T01:42:20;4.60;99.90
3792;DHT22;1911;53.768;11.474;2023-11-19T01:44:59;4.60;99.90
3792;DHT22;1911;53.768;11.474;2023-11-19T01:47:25;4.60;99.90
3792;DHT22;1911;53.768;11.474;2023-11-19T01:49:52;4.60;99.90
3792;DHT22;1911;53.768;11.474;2023-11-19T01:52:18;4.60;99.90
3792;DHT22;1911;53.768;11.474;2023-11-19T01:54:45;4.60;99.90
3792;DHT22;1911;53.768;11.474;2023-11-19T01:57:11;4.60;99.90
3792;DHT22;1911;53.768;11.474;2023-11-19T01:59:37;4.60;99.90
3792;DHT22;1911;53.768;11.474;2023-11-19T02:02:04;4.60;99.90
3792;DHT22;1911;53.768;11.474;2023-11-19T02:04:31;4.60;99.90
3792;DHT22;1911;53.768;11.474;2023-11-19T02:06:58;4.60;99.90
3792;DHT22;1911;53.768;11.474;2023-11-19T02:09:23;4.70;99.90
3792;DHT22;1911;53.768;11.474;2023-11-19T02:11:49;4.70;99.90
3792;DHT22;1911;53.768;11.474;2023-11-19T02:14:17;4.70;99.90
3792;DHT22;1911;53.768;11.474;2023-11-19T02:16:43;4.60;99.90
3792;DHT22;1911;53.768;11.474;2023-11-19T02:19:09;4.60;99.90
3792;DHT22;1911;53.768;11.474;2023-11-19T02:21:36;4.70;99.90
3792;DHT22;1911;53.768;11.474;2023-11-19T02:24:06;4.70;99.90
3792;DHT22;1911;53.768;11.474;2023-11-19T02:27:02;4.70;99.90
3792;DHT22;1911;53.768;11.474;2023-11-19T02:29:28;4.70;99.90
3792;DHT22;1911;53.768;11.474;2023-11-19T02:31:53;4.60;99.90
3792;DHT22;1911;53.768;11.474;2023-11-19T02:34:20;4.70;99.90
3792;DHT22;1911;53.768;11.474;2023-11-19T02:36:47;4.70;99.90
3792;DHT22;1911;53.768;11.474;2023-11-19T02:39:12;4.70;99.90
3792;DHT22;1911;53.768;11.474;2023-11-19T02:41:39;4.80;99.90
3792;DHT22;1911;53.768;11.474;2023-11-19T02:44:06;4.70;99.90
3792;DHT22;1911;53.768;11.474;2023-11-19T02:46:31;4.80;99.90
3792;DHT22;1911;53.768;11.474;2023-11-19T02:48:57;4.80;99.90
3792;DHT22;1911;53.768;11.474;2023-11-19T02:51:23;4.80;99.90
3792;DHT22;1911;53.768;11.474;2023-11-19T02:53:48;4.80;99.90
3792;DHT22;1911;53.768;11.474;2023-11-19T02:56:14;4.80;99.90
3792;DHT22;1911;53.768;11.474;2023-11-19T02:58:51;4.80;99.90
3792;DHT22;1911;53.768;11.474;2023-11-19T03:01:23;4.90;99.90
3792;DHT22;1911;53.768;11.474;2023-11-19T03:03:55;4.90;99.90
3792;DHT22;1911;53.768;11.474;2023-11-19T03:06:22;4.90;99.90
3792;DHT22;1911;53.768;11.474;2023-11-19T03:08:48;4.90;99.90
3792;DHT22;1911;53.768;11.474;2023-11-19T03:11:14;4.90;99.90
3792;DHT22;1911;53.768;11.474;2023-11-19T03:13:39;4.90;99.90
3792;DHT22;1911;53.768;11.474;2023-11-19T03:16:05;4.90;99.90
3792;DHT22;1911;53.768;11.474;2023-11-19T03:18:31;5.00;99.90
3792;DHT22;1911;53.768;11.474;2023-11-19T03:20:57;4.90;99.90
3792;DHT22;1911;53.768;11.474;2023-11-19T03:23:24;4.90;99.90
3792;DHT22;1911;53.768;11.474;2023-11-19T03:25:49;4.90;99.90
3792;DHT22;1911;53.768;11.474;2023-11-19T03:28:15;4.90;99.90
3792;DHT22;1911;53.768;11.474;2023-11-19T03:30:40;4.90;99.90
3792;DHT22;1911;53.768;11.474;2023-11-19T03:33:06;4.80;99.90
3792;DHT22;1911;53.768;11.474;2023-11-19T03:35:32;4.80;99.90
3792;DHT22;1911;53.768;11.474;2023-11-19T03:37:58;4.80;99.90
3792;DHT22;1911;53.768;11.474;2023-11-19T03:40:24;4.90;99.90
3792;DHT22;1911;53.768;11.474;2023-11-19T03:42:50;4.80;99.90
3792;DHT22;1911;53.768;11.474;2023-11-19T03:45:16;4.80;99.90
3792;DHT22;1911;53.768;11.474;2023-11-19T03:47:41;4.70;99.90
3792;DHT22;1911;53.768;11.474;2023-11-19T03:50:08;4.80;99.90
3792;DHT22;1911;53.768;11.474;2023-11-19T03:52:34;4.90;99.90
3792;DHT22;1911;53.768;11.474;2023-11-19T03:55:00;4.90;99.90
3792;DHT22;1911;53.768;11.474;2023-11-19T03:57:27;4.90;99.90
3792;DHT22;1911;53.768;11.474;2023-11-19T03:59:53;4.90;99.90
3792;DHT22;1911;53.768;11.474;2023-11-19T04:02:19;4.90;99.90
3792;DHT22;1911;53.768;11.474;2023-11-19T04:04:44;4.90;99.90
3792;DHT22;1911;53.768;11.474;2023-11-19T04:07:10;4.90;99.90
3792;DHT22;1911;53.768;11.474;2023-11-19T04:09:35;4.80;99.90
3792;DHT22;1911;53.768;11.474;2023-11-19T04:12:03;4.90;99.90
3792;DHT22;1911;53.768;11.474;2023-11-19T04:14:29;4.90;99.90
3792;DHT22;1911;53.768;11.474;2023-11-19T04:16:55;4.90;99.90
3792;DHT22;1911;53.768;11.474;2023-11-19T04:19:21;4.80;99.90
3792;DHT22;1911;53.768;11.474;2023-11-19T04:21:47;4.90;99.90
3792;DHT22;1911;53.768;11.474;2023-11-19T04:24:13;4.90;99.90
3792;DHT22;1911;53.768;11.474;2023-11-19T04:26:45;4.90;99.90
3792;DHT22;1911;53.768;11.474;2023-11-19T04:29:13;4.90;99.90
3792;DHT22;1911;53.768;11.474;2023-11-19T04:31:40;5.00;99.90
3792;DHT22;1911;53.768;11.474;2023-11-19T04:34:06;5.00;99.90
3792;DHT22;1911;53.768;11.474;2023-11-19T04:36:32;5.00;99.90
3792;DHT22;1911;53.768;11.474;2023-11-19T04:38:59;5.00;99.90
3792;DHT22;1911;53.768;11.474;2023-11-19T04:41:25;5.00;99.90
3792;DHT22;1911;53.768;11.474;2023-11-19T04:43:53;5.10;99.90
3792;DHT22;1911;53.768;11.474;2023-11-19T04:46:18;5.10;99.90
3792;DHT22;1911;53.768;11.474;2023-11-19T04:48:44;5.10;99.90
3792;DHT22;1911;53.768;11.474;2023-11-19T04:51:10;5.10;99.90
3792;DHT22;1911;53.768;11.474;2023-11-19T04:53:36;5.10;99.90
3792;DHT22;1911;53.768;11.474;2023-11-19T04:56:07;5.10;99.90
3792;DHT22;1911;53.768;11.474;2023-11-19T04:58:34;5.10;99.90
3792;DHT22;1911;53.768;11.474;2023-11-19T05:01:01;5.10;99.90
3792;DHT22;1911;53.768;11.474;2023-11-19T05:03:27;5.10;99.90
3792;DHT22;1911;53.768;11.474;2023-11-19T05:05:52;5.20;99.90
3792;DHT22;1911;53.768;11.474;2023-11-19T05:08:19;5.20;99.90
3792;DHT22;1911;53.768;11.474;2023-11-19T05:10:45;5.20;99.90
3792;DHT22;1911;53.768;11.474;2023-11-19T05:13:10;5.20;99.90
3792;DHT22;1911;53.768;11.474;2023-11-19T05:15:36;5.10;99.90
3792;DHT22;1911;53.768;11.474;2023-11-19T05:18:02;5.10;99.90
3792;DHT22;1911;53.768;11.474;2023-11-19T05:20:28;5.10;99.90
3792;DHT22;1911;53.768;11.474;2023-11-19T05:22:53;5.10;99.90
3792;DHT22;1911;53.768;11.474;2023-11-19T05:25:19;5.20;99.90
3792;DHT22;1911;53.768;11.474;2023-11-19T05:27:45;5.10;99.90
3792;DHT22;1911;53.768;11.474;2023-11-19T05:30:11;5.10;99.90
3792;DHT22;1911;53.768;11.474;2023-11-19T05:32:37;5.00;99.90
3792;DHT22;1911;53.768;11.474;2023-11-19T05:35:03;5.10;99.90
3792;DHT22;1911;53.768;11.474;2023-11-19T05:37:28;5.10;99.90
3792;DHT22;1911;53.768;11.474;2023-11-19T05:39:54;5.00;99.90
3792;DHT22;1911;53.768;11.474;2023-11-19T05:42:20;5.10;99.90
3792;DHT22;1911;53.768;11.474;2023-11-19T05:44:45;5.20;99.90
3792;DHT22;1911;53.768;11.474;2023-11-19T05:47:11;5.10;99.90
3792;DHT22;1911;53.768;11.474;2023-11-19T05:49:37;5.20;99.90
3792;DHT22;1911;53.768;11.474;2023-11-19T05:52:03;5.20;99.90
3792;DHT22;1911;53.768;11.474;2023-11-19T05:54:33;5.10;99.90
3792;DHT22;1911;53.768;11.474;2023-11-19T05:57:04;5.10;99.90
3792;DHT22;1911;53.768;11.474;2023-11-19T05:59:29;5.20;99.90
3792;DHT22;1911;53.768;11.474;2023-11-19T06:01:57;5.20;99.90
3792;DHT22;1911;53.768;11.474;2023-11-19T06:04:23;5.20;99.90
3792;DHT22;1911;53.768;11.474;2023-11-19T06:06:49;5.20;99.90
3792;DHT22;1911;53.768;11.474;2023-11-19T06:09:14;5.20;99.90
3792;DHT22;1911;53.768;11.474;2023-11-19T06:11:40;5.30;99.90
3792;DHT22;1911;53.768;11.474;2023-11-19T06:14:06;5.40;99.90
3792;DHT22;1911;53.768;11.474;2023-11-19T06:16:32;5.40;99.90
3792;DHT22;1911;53.768;11.474;2023-11-19T06:18:58;5.40;99.90
3792;DHT22;1911;53.768;11.474;2023-11-19T06:21:23;5.50;99.90
3792;DHT22;1911;53.768;11.474;2023-11-19T06:23:50;5.50;99.90
3792;DHT22;1911;53.768;11.474;2023-11-19T06:26:17;5.50;99.90
3792;DHT22;1911;53.768;11.474;2023-11-19T06:28:43;5.50;99.90
3792;DHT22;1911;53.768;11.474;2023-11-19T06:31:10;5.50;99.90
3792;DHT22;1911;53.768;11.474;2023-11-19T06:33:35;5.50;99.90
3792;DHT22;1911;53.768;11.474;2023-11-19T06:36:01;5.60;99.90
3792;DHT22;1911;53.768;11.474;2023-11-19T06:38:27;5.60;99.90
3792;DHT22;1911;53.768;11.474;2023-11-19T06:40:52;5.70;99.90
3792;DHT22;1911;53.768;11.474;2023-11-19T06:43:18;5.80;99.90
3792;DHT22;1911;53.768;11.474;2023-11-19T06:45:43;5.80;99.90
3792;DHT22;1911;53.768;11.474;2023-11-19T06:48:09;5.80;99.90
3792;DHT22;1911;53.768;11.474;2023-11-19T06:50:35;5.80;99.90
3792;DHT22;1911;53.768;11.474;2023-11-19T06:53:01;5.90;99.90
3792;DHT22;1911;53.768;11.474;2023-11-19T06:55:27;5.90;99.90
3792;DHT22;1911;53.768;11.474;2023-11-19T06:57:53;5.90;99.90
3792;DHT22;1911;53.768;11.474;2023-11-19T07:00:18;5.80;99.90
3792;DHT22;1911;53.768;11.474;2023-11-19T07:02:44;5.90;99.90
3792;DHT22;1911;53.768;11.474;2023-11-19T07:05:10;6.00;99.90
3792;DHT22;1911;53.768;11.474;2023-11-19T07:07:37;6.00;99.90
3792;DHT22;1911;53.768;11.474;2023-11-19T07:10:03;6.00;99.90
3792;DHT22;1911;53.768;11.474;2023-11-19T07:12:30;6.10;99.90
3792;DHT22;1911;53.768;11.474;2023-11-19T07:14:55;6.10;99.90
3792;DHT22;1911;53.768;11.474;2023-11-19T07:17:21;6.10;99.90
3792;DHT22;1911;53.768;11.474;2023-11-19T07:19:49;6.10;99.90
3792;DHT22;1911;53.768;11.474;2023-11-19T07:22:15;6.10;99.90
3792;DHT22;1911;53.768;11.474;2023-11-19T07:24:41;6.20;99.90
3792;DHT22;1911;53.768;11.474;2023-11-19T07:27:07;6.30;99.90
3792;DHT22;1911;53.768;11.474;2023-11-19T07:29:37;6.40;99.90
3792;DHT22;1911;53.768;11.474;2023-11-19T07:32:03;6.50;99.90
3792;DHT22;1911;53.768;11.474;2023-11-19T07:34:29;6.50;99.90
3792;DHT22;1911;53.768;11.474;2023-11-19T07:36:54;6.60;99.90
3792;DHT22;1911;53.768;11.474;2023-11-19T07:39:24;6.60;99.90
3792;DHT22;1911;53.768;11.474;2023-11-19T07:41:52;6.70;99.90
3792;DHT22;1911;53.768;11.474;2023-11-19T07:44:19;6.70;99.90
3792;DHT22;1911;53.768;11.474;2023-11-19T07:46:45;6.80;99.90
3792;DHT22;1911;53.768;11.474;2023-11-19T07:49:11;6.80;99.90
3792;DHT22;1911;53.768;11.474;2023-11-19T07:51:36;6.80;99.90
3792;DHT22;1911;53.768;11.474;2023-11-19T07:54:02;6.80;99.90
3792;DHT22;1911;53.768;11.474;2023-11-19T07:56:29;6.90;99.90
3792;DHT22;1911;53.768;11.474;2023-11-19T07:58:55;7.00;99.90
3792;DHT22;1911;53.768;11.474;2023-11-19T08:01:21;7.00;99.90
3792;DHT22;1911;53.768;11.474;2023-11-19T08:03:49;7.10;99.90
3792;DHT22;1911;53.768;11.474;2023-11-19T08:06:17;7.10;99.90
3792;DHT22;1911;53.768;11.474;2023-11-19T08:09:03;7.10;99.90
3792;DHT22;1911;53.768;11.474;2023-11-19T08:11:28;7.10;99.90
3792;DHT22;1911;53.768;11.474;2023-11-19T08:13:54;7.20;99.90
3792;DHT22;1911;53.768;11.474;2023-11-19T08:16:28;7.20;99.90
3792;DHT22;1911;53.768;11.474;2023-11-19T08:18:53;7.30;99.90
3792;DHT22;1911;53.768;11.474;2023-11-19T08:21:19;7.30;99.90
3792;DHT22;1911;53.768;11.474;2023-11-19T08:23:52;7.30;99.90
3792;DHT22;1911;53.768;11.474;2023-11-19T08:26:18;7.40;99.90
3792;DHT22;1911;53.768;11.474;2023-11-19T08:28:43;7.40;99.90
3792;DHT22;1911;53.768;11.474;2023-11-19T08:31:11;7.40;99.90
3792;DHT22;1911;53.768;11.474;2023-11-19T08:33:37;7.50;99.90
3792;DHT22;1911;53.768;11.474;2023-11-19T08:36:03;7.50;99.90
3792;DHT22;1911;53.768;11.474;2023-11-19T08:38:29;7.50;99.90
3792;DHT22;1911;53.768;11.474;2023-11-19T08:40:55;7.60;99.90
3792;DHT22;1911;53.768;11.474;2023-11-19T08:43:27;7.60;99.90
3792;DHT22;1911;53.768;11.474;2023-11-19T08:45:53;7.60;99.90
3792;DHT22;1911;53.768;11.474;2023-11-19T08:48:18;7.60;99.90
3792;DHT22;1911;53.768;11.474;2023-11-19T08:50:44;7.70;99.90
3792;DHT22;1911;53.768;11.474;2023-11-19T08:53:12;7.80;99.90
3792;DHT22;1911;53.768;11.474;2023-11-19T08:55:37;7.80;99.90
3792;DHT22;1911;53.768;11.474;2023-11-19T08:58:03;7.80;99.90
3792;DHT22;1911;53.768;11.474;2023-11-19T09:00:29;7.90;99.90
3792;DHT22;1911;53.768;11.474;2023-11-19T09:02:55;7.90;99.90
3792;DHT22;1911;53.768;11.474;2023-11-19T09:05:21;8.00;99.90
3792;DHT22;1911;53.768;11.474;2023-11-19T09:07:48;8.10;99.90
3792;DHT22;1911;53.768;11.474;2023-11-19T09:10:15;8.10;99.90
3792;DHT22;1911;53.768;11.474;2023-11-19T09:12:43;8.20;99.90
3792;DHT22;1911;53.768;11.474;2023-11-19T09:15:11;8.30;99.90
3792;DHT22;1911;53.768;11.474;2023-11-19T09:17:37;8.40;99.90
3792;DHT22;1911;53.768;11.474;2023-11-19T09:20:03;8.50;99.90
3792;DHT22;1911;53.768;11.474;2023-11-19T09:22:29;8.60;99.90
3792;DHT22;1911;53.768;11.474;2023-11-19T09:24:54;8.70;99.90
3792;DHT22;1911;53.768;11.474;2023-11-19T09:27:20;8.80;99.90
3792;DHT22;1911;53.768;11.474;2023-11-19T09:29:46;8.90;99.90
3792;DHT22;1911;53.768;11.474;2023-11-19T09:32:30;9.00;99.90
3792;DHT22;1911;53.768;11.474;2023-11-19T09:35:13;9.10;99.90
3792;DHT22;1911;53.768;11.474;2023-11-19T09:38:26;9.20;99.90
3792;DHT22;1911;53.768;11.474;2023-11-19T09:40:52;9.30;99.90
3792;DHT22;1911;53.768;11.474;2023-11-19T09:43:18;9.50;99.90
3792;DHT22;1911;53.768;11.474;2023-11-19T09:45:49;9.60;99.90
3792;DHT22;1911;53.768;11.474;2023-11-19T09:48:18;9.70;99.90
3792;DHT22;1911;53.768;11.474;2023-11-19T09:50:47;9.80;99.90
3792;DHT22;1911;53.768;11.474;2023-11-19T09:53:14;10.00;99.90
3792;DHT22;1911;53.768;11.474;2023-11-19T09:55:40;10.10;99.90
3792;DHT22;1911;53.768;11.474;2023-11-19T09:58:06;10.10;99.90
3792;DHT22;1911;53.768;11.474;2023-11-19T10:00:32;10.10;99.90
3792;DHT22;1911;53.768;11.474;2023-11-19T10:02:59;10.40;99.90
3792;DHT22;1911;53.768;11.474;2023-11-19T10:05:25;10.40;99.90
3792;DHT22;1911;53.768;11.474;2023-11-19T10:07:52;10.40;99.90
3792;DHT22;1911;53.768;11.474;2023-11-19T10:10:18;10.50;99.90
3792;DHT22;1911;53.768;11.474;2023-11-19T10:12:48;10.60;99.90
3792;DHT22;1911;53.768;11.474;2023-11-19T10:15:25;10.50;99.90
3792;DHT22;1911;53.768;11.474;2023-11-19T10:17:55;10.60;99.90
3792;DHT22;1911;53.768;11.474;2023-11-19T10:20:21;10.70;99.90
3792;DHT22;1911;53.768;11.474;2023-11-19T10:22:47;10.70;99.90
3792;DHT22;1911;53.768;11.474;2023-11-19T10:25:26;10.70;99.90
3792;DHT22;1911;53.768;11.474;2023-11-19T10:27:52;10.70;99.90
3792;DHT22;1911;53.768;11.474;2023-11-19T10:30:26;10.70;99.90
3792;DHT22;1911;53.768;11.474;2023-11-19T10:33:13;10.70;99.90
3792;DHT22;1911;53.768;11.474;2023-11-19T10:35:58;10.60;99.90
3792;DHT22;1911;53.768;11.474;2023-11-19T10:38:25;10.60;99.90
3792;DHT22;1911;53.768;11.474;2023-11-19T10:40:52;10.60;99.90
3792;DHT22;1911;53.768;11.474;2023-11-19T10:43:21;10.60;99.90
3792;DHT22;1911;53.768;11.474;2023-11-19T10:45:51;10.60;99.90
3792;DHT22;1911;53.768;11.474;2023-11-19T10:48:17;10.60;99.90
3792;DHT22;1911;53.768;11.474;2023-11-19T10:50:44;10.60;99.90
3792;DHT22;1911;53.768;11.474;2023-11-19T10:53:12;10.50;99.90
3792;DHT22;1911;53.768;11.474;2023-11-19T10:55:41;10.50;99.90
3792;DHT22;1911;53.768;11.474;2023-11-19T10:58:09;10.50;99.90
3792;DHT22;1911;53.768;11.474;2023-11-19T11:03:17;10.50;99.90
3792;DHT22;1911;53.768;11.474;2023-11-19T11:05:46;10.50;99.90
3792;DHT22;1911;53.768;11.474;2023-11-19T11:08:13;10.50;99.90
3792;DHT22;1911;53.768;11.474;2023-11-19T11:10:54;10.60;99.90
3792;DHT22;1911;53.768;11.474;2023-11-19T11:13:22;10.60;99.90
3792;DHT22;1911;53.768;11.474;2023-11-19T11:15:49;10.60;99.90
3792;DHT22;1911;53.768;11.474;2023-11-19T11:18:15;10.60;99.90
3792;DHT22;1911;53.768;11.474;2023-11-19T11:20:44;10.60;99.90
3792;DHT22;1911;53.768;11.474;2023-11-19T11:26:59;10.60;99.90
3792;DHT22;1911;53.768;11.474;2023-11-19T11:29:51;10.60;99.90
3792;DHT22;1911;53.768;11.474;2023-11-19T11:32:37;10.60;99.90
3792;DHT22;1911;53.768;11.474;2023-11-19T11:35:34;10.60;99.90
3792;DHT22;1911;53.768;11.474;2023-11-19T11:38:08;10.70;99.90
3792;DHT22;1911;53.768;11.474;2023-11-19T11:40:34;10.70;99.90
3792;DHT22;1911;53.768;11.474;2023-11-19T11:43:00;10.70;99.90
3792;DHT22;1911;53.768;11.474;2023-11-19T11:45:41;10.80;99.90
3792;DHT22;1911;53.768;11.474;2023-11-19T11:48:19;10.80;99.90
3792;DHT22;1911;53.768;11.474;2023-11-19T11:50:53;10.90;99.90
3792;DHT22;1911;53.768;11.474;2023-11-19T11:53:20;10.80;99.90
3792;DHT22;1911;53.768;11.474;2023-11-19T11:58:17;10.80;99.90
3792;DHT22;1911;53.768;11.474;2023-11-19T12:00:42;10.80;99.90
3792;DHT22;1911;53.768;11.474;2023-11-19T12:03:08;10.80;99.90
3792;DHT22;1911;53.768;11.474;2023-11-19T12:05:45;10.80;99.90
3792;DHT22;1911;53.768;11.474;2023-11-19T12:08:12;10.80;99.90
3792;DHT22;1911;53.768;11.474;2023-11-19T12:10:45;10.80;99.90
3792;DHT22;1911;53.768;11.474;2023-11-19T12:13:11;10.80;99.90
3792;DHT22;1911;53.768;11.474;2023-11-19T12:18:26;10.70;99.90
3792;DHT22;1911;53.768;11.474;2023-11-19T12:20:51;10.70;99.90
3792;DHT22;1911;53.768;11.474;2023-11-19T12:23:17;10.60;99.90
3792;DHT22;1911;53.768;11.474;2023-11-19T12:25:43;10.60;99.90
3792;DHT22;1911;53.768;11.474;2023-11-19T12:28:15;10.60;99.90
3792;DHT22;1911;53.768;11.474;2023-11-19T12:30:45;10.60;99.90
3792;DHT22;1911;53.768;11.474;2023-11-19T12:33:12;10.50;99.90
3792;DHT22;1911;53.768;11.474;2023-11-19T12:35:44;10.60;99.90
3792;DHT22;1911;53.768;11.474;2023-11-19T12:38:20;10.60;99.90
3792;DHT22;1911;53.768;11.474;2023-11-19T12:41:06;10.60;99.90
3792;DHT22;1911;53.768;11.474;2023-11-19T12:43:32;10.60;99.90
3792;DHT22;1911;53.768;11.474;2023-11-19T12:46:00;10.60;99.90
3792;DHT22;1911;53.768;11.474;2023-11-19T12:48:25;10.60;99.90
3792;DHT22;1911;53.768;11.474;2023-11-19T12:50:56;10.60;99.90
3792;DHT22;1911;53.768;11.474;2023-11-19T12:53:27;10.60;99.90
3792;DHT22;1911;53.768;11.474;2023-11-19T12:55:54;10.50;99.90
3792;DHT22;1911;53.768;11.474;2023-11-19T12:58:34;10.50;99.90
3792;DHT22;1911;53.768;11.474;2023-11-19T13:01:05;10.60;99.90
3792;DHT22;1911;53.768;11.474;2023-11-19T13:03:35;10.60;99.90
3792;DHT22;1911;53.768;11.474;2023-11-19T13:06:05;10.60;99.90
3792;DHT22;1911;53.768;11.474;2023-11-19T13:08:40;10.60;99.90
3792;DHT22;1911;53.768;11.474;2023-11-19T13:11:07;10.70;99.90
3792;DHT22;1911;53.768;11.474;2023-11-19T13:13:53;10.70;99.90
3792;DHT22;1911;53.768;11.474;2023-11-19T13:16:18;10.70;99.90
3792;DHT22;1911;53.768;11.474;2023-11-19T13:18:44;10.80;99.90
3792;DHT22;1911;53.768;11.474;2023-11-19T13:21:10;10.80;99.90
3792;DHT22;1911;53.768;11.474;2023-11-19T13:23:36;10.90;99.90
3792;DHT22;1911;53.768;11.474;2023-11-19T13:26:01;10.90;99.90
3792;DHT22;1911;53.768;11.474;2023-11-19T13:28:29;10.80;99.90
3792;DHT22;1911;53.768;11.474;2023-11-19T13:30:54;10.80;99.90
3792;DHT22;1911;53.768;11.474;2023-11-19T13:33:20;10.80;99.90
3792;DHT22;1911;53.768;11.474;2023-11-19T13:35:46;10.70;99.90
3792;DHT22;1911;53.768;11.474;2023-11-19T13:38:11;10.70;99.90
3792;DHT22;1911;53.768;11.474;2023-11-19T13:40:37;10.70;99.90
3792;DHT22;1911;53.768;11.474;2023-11-19T13:43:04;10.60;99.90
3792;DHT22;1911;53.768;11.474;2023-11-19T13:45:30;10.60;99.90
3792;DHT22;1911;53.768;11.474;2023-11-19T13:47:56;10.60;99.90
3792;DHT22;1911;53.768;11.474;2023-11-19T13:50:21;10.60;99.90
3792;DHT22;1911;53.768;11.474;2023-11-19T13:52:48;10.60;99.90
3792;DHT22;1911;53.768;11.474;2023-11-19T13:55:14;10.50;99.90
3792;DHT22;1911;53.768;11.474;2023-11-19T13:57:41;10.50;99.90
3792;DHT22;1911;53.768;11.474;2023-11-19T14:00:08;10.50;99.90
3792;DHT22;1911;53.768;11.474;2023-11-19T14:02:46;10.50;99.90
3792;DHT22;1911;53.768;11.474;2023-11-19T14:05:13;10.50;99.90
3792;DHT22;1911;53.768;11.474;2023-11-19T14:07:39;10.50;99.90
3792;DHT22;1911;53.768;11.474;2023-11-19T14:10:06;10.50;99.90
3792;DHT22;1911;53.768;11.474;2023-11-19T14:12:35;10.60;99.90
3792;DHT22;1911;53.768;11.474;2023-11-19T14:15:04;10.60;99.90
3792;DHT22;1911;53.768;11.474;2023-11-19T14:17:32;10.70;99.90
3792;DHT22;1911;53.768;11.474;2023-11-19T14:19:57;10.70;99.90
3792;DHT22;1911;53.768;11.474;2023-11-19T14:22:23;10.70;99.90
3792;DHT22;1911;53.768;11.474;2023-11-19T14:24:50;10.70;99.90
3792;DHT22;1911;53.768;11.474;2023-11-19T14:27:15;10.70;99.90
3792;DHT22;1911;53.768;11.474;2023-11-19T14:29:43;10.60;99.90
3792;DHT22;1911;53.768;11.474;2023-11-19T14:32:11;10.60;99.90
3792;DHT22;1911;53.768;11.474;2023-11-19T14:34:36;10.60;99.90
3792;DHT22;1911;53.768;11.474;2023-11-19T14:37:02;10.60;99.90
3792;DHT22;1911;53.768;11.474;2023-11-19T14:39:28;10.60;99.90
3792;DHT22;1911;53.768;11.474;2023-11-19T14:41:57;10.50;99.90
3792;DHT22;1911;53.768;11.474;2023-11-19T14:44:29;10.50;99.90
3792;DHT22;1911;53.768;11.474;2023-11-19T14:46:54;10.40;99.90
3792;DHT22;1911;53.768;11.474;2023-11-19T14:49:20;10.40;99.90
3792;DHT22;1911;53.768;11.474;2023-11-19T14:51:45;10.30;99.90
3792;DHT22;1911;53.768;11.474;2023-11-19T14:54:11;10.30;99.90
3792;DHT22;1911;53.768;11.474;2023-11-19T14:56:37;10.40;99.90
3792;DHT22;1911;53.768;11.474;2023-11-19T14:59:04;10.30;99.90
3792;DHT22;1911;53.768;11.474;2023-11-19T15:01:29;10.30;99.90
3792;DHT22;1911;53.768;11.474;2023-11-19T15:03:56;10.30;99.90
3792;DHT22;1911;53.768;11.474;2023-11-19T15:06:25;10.30;99.90
3792;DHT22;1911;53.768;11.474;2023-11-19T15:08:55;10.30;99.90
3792;DHT22;1911;53.768;11.474;2023-11-19T15:11:21;10.20;99.90
3792;DHT22;1911;53.768;11.474;2023-11-19T15:13:47;10.20;99.90
3792;DHT22;1911;53.768;11.474;2023-11-19T15:16:12;10.20;99.90
3792;DHT22;1911;53.768;11.474;2023-11-19T15:18:40;10.20;99.90
3792;DHT22;1911;53.768;11.474;2023-11-19T15:21:05;10.20;99.90
3792;DHT22;1911;53.768;11.474;2023-11-19T15:23:31;10.20;99.90
3792;DHT22;1911;53.768;11.474;2023-11-19T15:25:57;10.20;99.90
3792;DHT22;1911;53.768;11.474;2023-11-19T15:28:22;10.20;99.90
3792;DHT22;1911;53.768;11.474;2023-11-19T15:30:48;10.20;99.90
3792;DHT22;1911;53.768;11.474;2023-11-19T15:33:14;10.20;99.90
3792;DHT22;1911;53.768;11.474;2023-11-19T15:35:40;10.10;99.90
3792;DHT22;1911;53.768;11.474;2023-11-19T15:38:06;10.20;99.90
3792;DHT22;1911;53.768;11.474;2023-11-19T15:40:35;10.10;99.90
3792;DHT22;1911;53.768;11.474;2023-11-19T15:43:01;10.10;99.90
3792;DHT22;1911;53.768;11.474;2023-11-19T15:45:27;10.10;99.90
3792;DHT22;1911;53.768;11.474;2023-11-19T15:47:52;10.10;99.90
3792;DHT22;1911;53.768;11.474;2023-11-19T15:50:18;10.10;99.90
3792;DHT22;1911;53.768;11.474;2023-11-19T15:52:44;10.10;99.90
3792;DHT22;1911;53.768;11.474;2023-11-19T15:55:10;10.10;99.90
3792;DHT22;1911;53.768;11.474;2023-11-19T15:57:38;10.10;99.90
3792;DHT22;1911;53.768;11.474;2023-11-19T16:00:03;10.10;99.90
3792;DHT22;1911;53.768;11.474;2023-11-19T16:02:30;10.10;99.90
3792;DHT22;1911;53.768;11.474;2023-11-19T16:04:55;10.10;99.90
3792;DHT22;1911;53.768;11.474;2023-11-19T16:07:21;10.10;99.90